Appomattox, Virginia
Current Conditions -  °F | °C
As of 5:55 PM on Monday 24 Nov 2014 (Local Time) from K0V4 Reporting Station
Clear Clear  
Wind Chill: 67°   Ceiling: Unl
Heat Index: 67°   Visibility: 10mi
Dew Point: 55°   Wind: 6mph
Humidity: 66%   Direction: 200°SSW
Pressure: 29.75"   Gusts: NA
Location:  37.36°N, 78.83°W
Report Text: K0V4 242255Z AUTO 20005KT 10SM CLR 19/13 A2975 RMK AO1 T01930129
Loading
Personal Weather Stations






























Interactive Weather Map New forecast layout! Learn more

10-Day Weather Forecast

Advertisements
Track Severe Weather on mobile